createdAt,value
2018-10-19T00:00:46.818Z,11.90
2018-10-19T00:03:15.016Z,11.90
2018-10-19T00:05:42.995Z,11.90
2018-10-19T00:08:11.087Z,11.80
2018-10-19T00:10:46.747Z,11.80
2018-10-19T00:13:14.844Z,11.80
2018-10-19T00:15:42.935Z,11.80
2018-10-19T00:18:11.083Z,11.70
2018-10-19T00:20:39.166Z,11.70
2018-10-19T00:23:07.581Z,11.70
2018-10-19T00:25:35.671Z,11.70
2018-10-19T00:28:04.188Z,11.70
2018-10-19T00:30:32.287Z,11.70
2018-10-19T00:33:00.390Z,11.60
2018-10-19T00:35:28.518Z,11.60
2018-10-19T00:37:56.603Z,11.60
2018-10-19T00:40:24.691Z,11.50
2018-10-19T00:42:52.788Z,11.50
2018-10-19T00:45:25.207Z,11.50
2018-10-19T00:47:53.403Z,11.40
2018-10-19T00:50:21.507Z,11.40
2018-10-19T00:52:49.596Z,11.40
2018-10-19T00:55:17.819Z,11.40
2018-10-19T00:57:45.911Z,11.40
2018-10-19T01:00:14.055Z,11.30
2018-10-19T01:02:42.188Z,11.40
2018-10-19T01:05:10.329Z,11.40
2018-10-19T01:07:38.384Z,11.40
2018-10-19T01:10:06.531Z,11.40
2018-10-19T01:12:34.635Z,11.40
2018-10-19T01:15:02.933Z,11.50
2018-10-19T01:17:30.911Z,11.50
2018-10-19T01:19:59.027Z,11.50
2018-10-19T01:22:27.224Z,11.50
2018-10-19T01:24:55.350Z,11.50
2018-10-19T01:27:23.499Z,11.50
2018-10-19T01:29:51.613Z,11.50
2018-10-19T01:32:19.695Z,11.50
2018-10-19T01:34:47.815Z,11.50
2018-10-19T01:37:16.452Z,11.50
2018-10-19T01:39:44.531Z,11.50
2018-10-19T01:42:12.678Z,11.40
2018-10-19T01:44:40.790Z,11.40
2018-10-19T01:47:08.969Z,11.30
2018-10-19T01:49:37.016Z,11.40
2018-10-19T01:52:05.674Z,11.30
2018-10-19T01:54:34.056Z,11.30
2018-10-19T01:57:02.279Z,11.30
2018-10-19T01:59:30.278Z,11.30
2018-10-19T02:01:58.393Z,11.30
2018-10-19T02:04:26.703Z,11.20
2018-10-19T02:06:54.806Z,11.20
2018-10-19T02:09:22.917Z,11.20
2018-10-19T02:11:51.011Z,11.20
2018-10-19T02:14:19.139Z,11.20
2018-10-19T02:16:47.237Z,11.10
2018-10-19T02:19:15.368Z,11.10
2018-10-19T02:21:43.587Z,11.10
2018-10-19T02:24:11.724Z,11.00
2018-10-19T02:26:39.877Z,11.00
2018-10-19T02:29:08.064Z,11.00
2018-10-19T02:31:36.373Z,11.00
2018-10-19T02:34:04.707Z,11.00
2018-10-19T02:36:32.835Z,11.00
2018-10-19T02:39:01.017Z,11.00
2018-10-19T02:41:29.085Z,11.00
2018-10-19T02:43:57.635Z,11.00
2018-10-19T02:46:25.739Z,11.00
2018-10-19T02:48:53.834Z,11.10
2018-10-19T02:51:22.003Z,11.10
2018-10-19T02:53:50.135Z,11.10
2018-10-19T02:56:18.221Z,11.10
2018-10-19T02:58:46.328Z,11.20
2018-10-19T03:01:14.422Z,11.20
2018-10-19T03:03:42.555Z,11.20
2018-10-19T03:06:10.667Z,11.20
2018-10-19T03:08:38.764Z,11.30
2018-10-19T03:11:07.231Z,11.30
2018-10-19T03:13:35.260Z,11.30
2018-10-19T03:16:03.379Z,11.30
2018-10-19T03:18:31.548Z,11.40
2018-10-19T03:20:59.929Z,11.40
2018-10-19T03:23:28.027Z,11.40
2018-10-19T03:25:56.059Z,11.30
2018-10-19T03:28:24.139Z,11.30
2018-10-19T03:30:52.378Z,11.30
2018-10-19T03:33:20.385Z,11.40
2018-10-19T03:35:48.615Z,11.40
2018-10-19T03:38:16.709Z,11.40
2018-10-19T03:40:44.802Z,9.70
2018-10-19T03:43:12.943Z,11.40
2018-10-19T03:45:41.043Z,11.40
2018-10-19T03:48:09.151Z,11.40
2018-10-19T03:50:37.242Z,11.40
2018-10-19T03:53:05.677Z,11.40
2018-10-19T03:55:33.764Z,11.40
2018-10-19T03:58:02.175Z,11.40
2018-10-19T04:00:30.288Z,11.40
2018-10-19T04:02:58.385Z,11.40
2018-10-19T04:05:26.465Z,11.40
2018-10-19T04:07:54.536Z,11.40
2018-10-19T04:10:22.970Z,11.40
2018-10-19T04:12:51.131Z,11.40
2018-10-19T04:15:19.332Z,11.40
2018-10-19T04:17:47.359Z,11.40
2018-10-19T04:20:15.463Z,11.40
2018-10-19T04:22:43.591Z,11.40
2018-10-19T04:25:11.731Z,11.50
2018-10-19T04:27:39.897Z,11.50
2018-10-19T04:30:08.122Z,11.50
2018-10-19T04:32:36.226Z,11.50
2018-10-19T04:35:04.412Z,11.50
2018-10-19T04:37:32.523Z,11.50
2018-10-19T04:40:00.663Z,11.50
2018-10-19T04:42:28.856Z,11.50
2018-10-19T04:44:56.928Z,11.50
2018-10-19T04:47:24.973Z,11.50
2018-10-19T04:49:53.092Z,11.50
2018-10-19T04:52:21.183Z,11.40
2018-10-19T04:54:49.300Z,11.40
2018-10-19T04:57:17.526Z,11.40
2018-10-19T04:59:45.509Z,11.40
2018-10-19T05:02:13.599Z,11.40
2018-10-19T05:04:41.731Z,11.30
2018-10-19T05:07:09.844Z,11.30
2018-10-19T05:09:37.935Z,11.30
2018-10-19T05:12:06.043Z,11.30
2018-10-19T05:14:34.155Z,11.20
2018-10-19T05:17:02.450Z,11.20
2018-10-19T05:19:30.402Z,11.20
2018-10-19T05:21:58.486Z,11.20
2018-10-19T05:24:26.955Z,11.10
2018-10-19T05:26:55.019Z,11.10
2018-10-19T05:29:23.135Z,11.10
2018-10-19T05:31:51.250Z,11.10
2018-10-19T05:34:19.351Z,11.00
2018-10-19T05:36:47.520Z,11.00
2018-10-19T05:39:15.998Z,11.00
2018-10-19T05:41:44.136Z,11.00
2018-10-19T05:44:12.335Z,10.90
2018-10-19T05:46:40.344Z,10.90
2018-10-19T05:49:08.546Z,10.90
2018-10-19T05:51:36.618Z,10.90
2018-10-19T05:54:05.081Z,10.90
2018-10-19T05:56:33.306Z,10.80
2018-10-19T05:59:01.455Z,10.90
2018-10-19T06:01:29.544Z,10.80
2018-10-19T06:03:57.627Z,10.80
2018-10-19T06:06:25.713Z,10.80
2018-10-19T06:08:53.867Z,10.70
2018-10-19T06:11:21.952Z,10.70
2018-10-19T06:13:50.093Z,10.70
2018-10-19T06:16:18.187Z,10.70
2018-10-19T06:18:46.297Z,10.70
2018-10-19T06:21:14.514Z,10.60
2018-10-19T06:23:42.489Z,10.70
2018-10-19T06:26:12.669Z,10.60
2018-10-19T06:28:40.792Z,10.60
2018-10-19T06:31:08.968Z,10.60
2018-10-19T06:33:37.073Z,10.60
2018-10-19T06:36:05.187Z,10.60
2018-10-19T06:38:33.362Z,10.60
2018-10-19T06:41:01.543Z,10.60
2018-10-19T06:43:29.655Z,10.60
2018-10-19T06:45:57.739Z,10.60
2018-10-19T06:48:25.886Z,10.60
2018-10-19T06:50:53.989Z,10.60
2018-10-19T06:53:22.091Z,10.60
2018-10-19T06:55:50.287Z,10.60
2018-10-19T06:58:18.382Z,10.60
2018-10-19T07:00:46.493Z,10.60
2018-10-19T07:03:14.612Z,10.60
2018-10-19T07:05:42.792Z,10.60
2018-10-19T07:08:10.896Z,10.60
2018-10-19T07:10:38.955Z,10.60
2018-10-19T07:13:07.079Z,10.60
2018-10-19T07:15:35.190Z,10.60
2018-10-19T07:18:03.267Z,10.60
2018-10-19T07:20:31.373Z,10.60
2018-10-19T07:22:59.584Z,10.60
2018-10-19T07:25:27.657Z,10.60
2018-10-19T07:27:55.745Z,10.60
2018-10-19T07:30:23.919Z,10.70
2018-10-19T07:32:52.269Z,10.70
2018-10-19T07:35:20.382Z,10.70
2018-10-19T07:37:48.539Z,10.70
2018-10-19T07:40:16.651Z,10.70
2018-10-19T07:42:44.780Z,10.80
2018-10-19T07:45:13.290Z,10.80
2018-10-19T07:47:41.629Z,10.80
2018-10-19T07:50:10.090Z,10.80
2018-10-19T07:52:40.063Z,10.90
2018-10-19T07:55:09.054Z,10.90
2018-10-19T07:57:37.135Z,10.90
2018-10-19T08:00:06.223Z,11.00
2018-10-19T08:02:34.307Z,11.00
2018-10-19T08:05:02.482Z,11.00
2018-10-19T08:07:30.543Z,11.00
2018-10-19T08:09:59.019Z,11.10
2018-10-19T08:12:27.190Z,11.10
2018-10-19T08:14:55.579Z,11.10
2018-10-19T08:17:23.683Z,11.20
2018-10-19T08:19:51.819Z,11.20
2018-10-19T08:22:19.919Z,11.20
2018-10-19T08:24:48.999Z,11.30
2018-10-19T08:27:17.100Z,11.30
2018-10-19T08:29:45.193Z,11.40
2018-10-19T08:32:13.390Z,11.50
2018-10-19T08:34:41.371Z,11.50
2018-10-19T08:37:09.476Z,11.60
2018-10-19T08:39:37.675Z,11.60
2018-10-19T08:42:05.817Z,11.70
2018-10-19T08:44:33.962Z,11.80
2018-10-19T08:47:02.110Z,11.80
2018-10-19T08:49:30.128Z,11.90
2018-10-19T08:51:58.231Z,11.90
2018-10-19T08:54:26.349Z,12.00
2018-10-19T08:56:54.490Z,12.10
2018-10-19T08:59:22.531Z,12.20
2018-10-19T09:01:50.667Z,12.20
2018-10-19T09:04:18.903Z,12.40
2018-10-19T09:06:47.023Z,12.40
2018-10-19T09:09:15.226Z,12.50
2018-10-19T09:11:43.240Z,12.60
2018-10-19T09:14:22.773Z,12.70
2018-10-19T09:16:50.887Z,12.80
2018-10-19T09:19:29.631Z,13.00
2018-10-19T09:21:57.890Z,13.10
2018-10-19T09:24:25.970Z,13.20
2018-10-19T09:26:54.121Z,13.30
2018-10-19T09:29:22.184Z,13.40
2018-10-19T09:31:50.277Z,13.50
2018-10-19T09:34:18.411Z,13.70
2018-10-19T09:36:46.596Z,13.80
2018-10-19T09:39:14.820Z,13.90
2018-10-19T09:41:43.194Z,14.00
2018-10-19T09:44:11.351Z,14.10
2018-10-19T09:46:40.861Z,14.20
2018-10-19T09:49:11.309Z,14.30
2018-10-19T09:51:40.194Z,14.40
2018-10-19T09:54:08.775Z,14.50
2018-10-19T09:56:36.934Z,14.60
2018-10-19T09:59:05.476Z,14.70
2018-10-19T10:01:33.623Z,14.90
2018-10-19T10:04:01.771Z,15.00
2018-10-19T10:06:30.642Z,15.00
2018-10-19T10:08:58.803Z,15.10
2018-10-19T10:11:26.907Z,15.20
2018-10-19T10:13:54.996Z,15.20
2018-10-19T10:16:24.217Z,15.30
2018-10-19T10:18:52.352Z,15.40
2018-10-19T10:21:22.081Z,15.50
2018-10-19T10:23:53.164Z,15.50
2018-10-19T10:26:22.523Z,15.60
2018-10-19T10:28:52.123Z,15.70
2018-10-19T10:31:20.267Z,15.70
2018-10-19T10:33:48.589Z,15.80
2018-10-19T10:36:16.705Z,15.90
2018-10-19T10:38:44.907Z,15.90
2018-10-19T10:41:12.959Z,16.00
2018-10-19T10:43:41.124Z,16.10
2018-10-19T10:46:09.334Z,16.20
2018-10-19T10:48:37.381Z,16.30
2018-10-19T10:51:05.907Z,16.30
2018-10-19T10:53:34.019Z,16.40
2018-10-19T10:56:02.155Z,16.50
2018-10-19T10:58:30.328Z,16.60
2018-10-19T11:00:58.468Z,16.70
2018-10-19T11:03:26.615Z,16.70
2018-10-19T11:05:54.707Z,16.80
2018-10-19T11:08:22.793Z,16.90
2018-10-19T11:10:50.944Z,16.90
2018-10-19T11:13:19.039Z,17.00
2018-10-19T11:15:47.123Z,17.10
2018-10-19T11:18:15.236Z,17.10
2018-10-19T11:20:43.339Z,17.20
2018-10-19T11:23:11.426Z,17.20
2018-10-19T11:25:40.422Z,17.30
2018-10-19T11:28:08.602Z,17.30
2018-10-19T11:30:36.753Z,17.40
2018-10-19T11:33:04.963Z,17.40
2018-10-19T11:35:33.071Z,17.50
2018-10-19T11:38:01.353Z,17.50
2018-10-19T11:40:33.786Z,17.60
2018-10-19T11:43:02.040Z,17.60
2018-10-19T11:45:31.456Z,17.70
2018-10-19T11:47:59.655Z,17.70
2018-10-19T11:50:27.851Z,17.70
2018-10-19T11:52:55.949Z,17.80
2018-10-19T11:55:24.091Z,17.80
2018-10-19T11:57:52.579Z,17.80
2018-10-19T12:00:20.714Z,17.90
2018-10-19T12:02:48.975Z,17.90
2018-10-19T12:05:17.111Z,18.00
2018-10-19T12:07:45.275Z,18.00
2018-10-19T12:10:14.193Z,18.10
2018-10-19T12:12:42.598Z,18.10
2018-10-19T12:15:12.280Z,18.10
2018-10-19T12:17:40.999Z,18.10
2018-10-19T12:20:11.830Z,18.20
2018-10-19T12:22:40.060Z,18.20
2018-10-19T12:25:09.140Z,18.30
2018-10-19T12:27:37.294Z,18.30
2018-10-19T12:30:05.519Z,18.40
2018-10-19T12:32:33.607Z,18.40
2018-10-19T12:35:01.730Z,18.40
2018-10-19T12:37:29.940Z,18.50
2018-10-19T12:39:58.063Z,18.60
2018-10-19T12:42:26.199Z,18.70
2018-10-19T12:44:54.353Z,18.70
2018-10-19T12:47:31.819Z,18.80
2018-10-19T12:49:59.904Z,18.80
2018-10-19T12:52:28.234Z,18.90
2018-10-19T12:54:56.437Z,18.90
2018-10-19T12:57:24.548Z,19.00
2018-10-19T12:59:52.659Z,19.00
2018-10-19T13:02:20.811Z,19.00
2018-10-19T13:04:49.010Z,19.00
2018-10-19T13:07:17.393Z,19.10
2018-10-19T13:09:45.463Z,19.10
2018-10-19T13:12:13.595Z,19.20
2018-10-19T13:14:41.702Z,19.20
2018-10-19T13:17:09.883Z,19.30
2018-10-19T13:19:38.213Z,19.30
2018-10-19T13:22:06.993Z,19.30
2018-10-19T13:24:35.091Z,19.40
2018-10-19T13:27:03.173Z,19.50
2018-10-19T13:29:31.313Z,19.50
2018-10-19T13:31:59.531Z,19.60
2018-10-19T13:34:27.789Z,19.70
2018-10-19T13:36:55.847Z,19.80
2018-10-19T13:39:23.919Z,20.00
2018-10-19T13:41:52.025Z,20.10
2018-10-19T13:44:20.131Z,20.20
2018-10-19T13:46:48.228Z,20.30
2018-10-19T13:49:16.352Z,20.40
2018-10-19T13:51:44.466Z,20.50
2018-10-19T13:54:12.555Z,20.60
2018-10-19T13:56:40.635Z,20.80
2018-10-19T13:59:09.664Z,20.90
2018-10-19T14:01:37.995Z,21.00
2018-10-19T14:04:06.413Z,21.10
2018-10-19T14:06:34.539Z,21.20
2018-10-19T14:09:02.818Z,21.40
2018-10-19T14:11:35.302Z,21.50
2018-10-19T14:14:03.505Z,21.70
2018-10-19T14:16:31.623Z,21.70
2018-10-19T14:18:59.776Z,21.70
2018-10-19T14:21:27.840Z,21.80
2018-10-19T14:23:55.988Z,21.90
2018-10-19T14:26:24.086Z,22.10
2018-10-19T14:28:52.226Z,22.20
2018-10-19T14:31:23.656Z,22.30
2018-10-19T14:33:51.745Z,22.50
2018-10-19T14:36:20.381Z,22.50
2018-10-19T14:38:48.535Z,22.60
2018-10-19T14:41:16.689Z,22.70
2018-10-19T14:43:44.742Z,22.70
2018-10-19T14:46:12.830Z,22.80
2018-10-19T14:48:40.963Z,22.90
2018-10-19T14:51:09.117Z,23.00
2018-10-19T14:53:37.171Z,23.10
2018-10-19T14:56:05.276Z,23.20
2018-10-19T14:58:33.425Z,23.30
2018-10-19T15:01:01.748Z,23.40
2018-10-19T15:03:29.827Z,23.50
2018-10-19T15:05:57.910Z,23.60
2018-10-19T15:08:26.039Z,23.60
2018-10-19T15:10:54.299Z,23.70
2018-10-19T15:13:22.255Z,23.80
2018-10-19T15:15:50.356Z,23.90
2018-10-19T15:18:18.531Z,23.90
2018-10-19T15:20:46.626Z,24.00
2018-10-19T15:23:14.731Z,24.10
2018-10-19T15:25:42.807Z,24.10
2018-10-19T15:28:10.945Z,24.10
2018-10-19T15:30:39.031Z,24.00
2018-10-19T15:33:07.496Z,23.80
2018-10-19T15:35:35.708Z,23.60
2018-10-19T15:38:03.826Z,23.30
2018-10-19T15:40:32.057Z,23.10
2018-10-19T15:43:02.762Z,22.80
2018-10-19T15:45:31.487Z,22.50
2018-10-19T15:47:59.645Z,22.10
2018-10-19T15:50:27.727Z,21.80
2018-10-19T15:52:55.829Z,21.60
2018-10-19T15:55:25.019Z,21.30
2018-10-19T15:57:53.284Z,21.00
2018-10-19T16:00:21.551Z,20.80
2018-10-19T16:02:49.535Z,20.50
2018-10-19T16:05:17.708Z,20.30
2018-10-19T16:07:45.800Z,20.10
2018-10-19T16:10:13.958Z,19.90
2018-10-19T16:12:42.007Z,19.80
2018-10-19T16:15:10.725Z,19.60
2018-10-19T16:17:39.472Z,19.40
2018-10-19T16:20:08.627Z,19.30
2018-10-19T16:22:36.950Z,19.20
2018-10-19T16:25:06.249Z,19.10
2018-10-19T16:27:34.417Z,18.90
2018-10-19T16:30:02.684Z,18.80
2018-10-19T16:32:30.741Z,18.70
2018-10-19T16:34:59.184Z,18.40
2018-10-19T16:37:27.277Z,18.30
2018-10-19T16:39:55.402Z,18.30
2018-10-19T16:42:23.544Z,18.20
2018-10-19T16:44:51.628Z,18.10
2018-10-19T16:47:19.752Z,18.10
2018-10-19T16:49:47.867Z,18.00
2018-10-19T16:52:16.153Z,18.00
2018-10-19T16:54:44.666Z,17.90
2018-10-19T16:57:12.798Z,17.80
2018-10-19T16:59:40.870Z,17.70
2018-10-19T17:02:08.974Z,17.70
2018-10-19T17:04:37.104Z,17.60
2018-10-19T17:07:05.501Z,17.50
2018-10-19T17:09:33.621Z,17.50
2018-10-19T17:12:01.846Z,17.40
2018-10-19T17:14:29.947Z,17.40
2018-10-19T17:16:58.043Z,17.30
2018-10-19T17:19:26.589Z,17.20
2018-10-19T17:21:54.653Z,17.20
2018-10-19T17:24:22.852Z,17.20
2018-10-19T17:26:51.035Z,17.10
2018-10-19T17:29:19.176Z,17.00
2018-10-19T17:31:47.906Z,17.00
2018-10-19T17:34:15.981Z,16.90
2018-10-19T17:36:44.078Z,16.90
2018-10-19T17:39:12.578Z,16.60
2018-10-19T17:41:40.649Z,16.60
2018-10-19T17:44:09.002Z,16.60
2018-10-19T17:46:37.080Z,16.60
2018-10-19T17:49:05.291Z,16.50
2018-10-19T17:51:33.396Z,16.50
2018-10-19T17:54:01.634Z,16.50
2018-10-19T17:56:29.775Z,16.40
2018-10-19T17:58:57.960Z,16.40
2018-10-19T18:01:26.396Z,16.40
2018-10-19T18:03:54.494Z,16.30
2018-10-19T18:06:22.621Z,16.30
2018-10-19T18:08:50.724Z,16.20
2018-10-19T18:11:18.846Z,16.20
2018-10-19T18:13:46.959Z,16.10
2018-10-19T18:16:15.189Z,16.10
2018-10-19T18:18:43.223Z,16.00
2018-10-19T18:21:11.449Z,16.00
2018-10-19T18:23:39.631Z,15.90
2018-10-19T18:26:07.710Z,15.90
2018-10-19T18:28:35.820Z,15.90
2018-10-19T18:31:03.954Z,15.80
2018-10-19T18:33:32.027Z,15.80
2018-10-19T18:36:00.280Z,15.70
2018-10-19T18:38:28.492Z,15.70
2018-10-19T18:40:56.976Z,15.60
2018-10-19T18:43:25.590Z,15.60
2018-10-19T18:45:54.601Z,15.50
2018-10-19T18:48:22.819Z,15.50
2018-10-19T18:50:51.007Z,15.50
2018-10-19T18:53:19.445Z,15.40
2018-10-19T18:55:47.985Z,15.30
2018-10-19T18:58:17.087Z,15.30
2018-10-19T19:00:45.323Z,15.30
2018-10-19T19:03:13.498Z,15.30
2018-10-19T19:05:41.671Z,15.20
2018-10-19T19:08:10.122Z,15.20
2018-10-19T19:10:38.611Z,15.20
2018-10-19T19:13:12.056Z,15.10
2018-10-19T19:15:40.899Z,15.20
2018-10-19T19:18:09.207Z,15.00
2018-10-19T19:20:37.380Z,15.00
2018-10-19T19:23:06.051Z,15.00
2018-10-19T19:25:39.678Z,14.90
2018-10-19T19:28:07.817Z,14.80
2018-10-19T19:30:35.999Z,14.80
2018-10-19T19:33:09.451Z,14.80
2018-10-19T19:35:37.572Z,14.70
2018-10-19T19:38:05.775Z,14.70
2018-10-19T19:40:39.327Z,14.60
2018-10-19T19:43:07.432Z,14.50
2018-10-19T19:45:35.539Z,14.50
2018-10-19T19:48:08.987Z,14.50
2018-10-19T19:50:37.080Z,14.40
2018-10-19T19:53:05.635Z,14.40
2018-10-19T19:55:33.735Z,14.40
2018-10-19T19:58:02.965Z,14.30
2018-10-19T20:00:31.261Z,14.20
2018-10-19T20:02:59.399Z,14.20
2018-10-19T20:05:28.186Z,14.20
2018-10-19T20:07:56.291Z,14.30
2018-10-19T20:10:24.552Z,14.30
2018-10-19T20:12:52.839Z,14.30
2018-10-19T20:15:20.986Z,14.40
2018-10-19T20:17:49.826Z,14.40
2018-10-19T20:20:18.125Z,14.40
2018-10-19T20:22:46.137Z,14.40
2018-10-19T20:25:14.291Z,14.40
2018-10-19T20:27:42.437Z,14.50
2018-10-19T20:30:12.249Z,14.50
2018-10-19T20:32:40.627Z,14.50
2018-10-19T20:35:09.099Z,14.50
2018-10-19T20:37:37.201Z,14.50
2018-10-19T20:40:05.505Z,14.50
2018-10-19T20:42:33.635Z,14.50
2018-10-19T20:45:01.722Z,14.50
2018-10-19T20:47:29.845Z,14.50
2018-10-19T20:49:58.364Z,14.40
2018-10-19T20:52:26.521Z,14.40
2018-10-19T20:54:54.630Z,14.40
2018-10-19T20:57:22.695Z,14.40
2018-10-19T20:59:50.801Z,14.30
2018-10-19T21:02:19.147Z,14.30
2018-10-19T21:04:47.218Z,14.30
2018-10-19T21:07:15.337Z,14.20
2018-10-19T21:09:43.430Z,14.10
2018-10-19T21:12:11.544Z,14.10
2018-10-19T21:14:39.659Z,13.90
2018-10-19T21:17:07.838Z,13.90
2018-10-19T21:19:35.972Z,13.90
2018-10-19T21:22:04.017Z,13.90
2018-10-19T21:24:32.116Z,13.90
2018-10-19T21:27:00.251Z,13.90
2018-10-19T21:29:29.367Z,13.90
2018-10-19T21:31:57.550Z,13.80
2018-10-19T21:34:25.631Z,13.80
2018-10-19T21:36:53.871Z,13.80
2018-10-19T21:39:21.934Z,13.70
2018-10-19T21:41:50.075Z,13.70
2018-10-19T21:44:18.179Z,13.60
2018-10-19T21:46:46.465Z,13.60
2018-10-19T21:49:14.546Z,13.50
2018-10-19T21:51:42.735Z,13.50
2018-10-19T21:54:10.760Z,13.40
2018-10-19T21:56:39.891Z,13.40
2018-10-19T21:59:08.095Z,13.30
2018-10-19T22:01:36.136Z,13.30
2018-10-19T22:04:04.244Z,13.20
2018-10-19T22:06:32.438Z,13.10
2018-10-19T22:09:00.584Z,13.10
2018-10-19T22:11:28.723Z,13.00
2018-10-19T22:13:56.889Z,13.00
2018-10-19T22:16:25.072Z,12.90
2018-10-19T22:18:53.235Z,12.80
2018-10-19T22:21:21.488Z,12.80
2018-10-19T22:23:49.699Z,12.70
2018-10-19T22:26:18.233Z,12.70
2018-10-19T22:28:46.296Z,12.60
2018-10-19T22:31:14.546Z,12.60
2018-10-19T22:33:42.657Z,12.50
2018-10-19T22:36:10.745Z,12.50
2018-10-19T22:38:38.879Z,12.40
2018-10-19T22:41:07.089Z,12.40
2018-10-19T22:43:35.115Z,12.40
2018-10-19T22:46:03.270Z,12.30
2018-10-19T22:48:31.355Z,12.30
2018-10-19T22:50:59.516Z,12.20
2018-10-19T22:53:27.608Z,12.20
2018-10-19T22:55:56.067Z,12.10
2018-10-19T22:58:24.152Z,12.10
2018-10-19T23:00:52.230Z,12.00
2018-10-19T23:03:20.288Z,12.00
2018-10-19T23:05:48.402Z,11.90
2018-10-19T23:08:16.469Z,11.90
2018-10-19T23:10:44.574Z,11.90
2018-10-19T23:13:12.710Z,11.80
2018-10-19T23:15:40.821Z,11.70
2018-10-19T23:18:08.922Z,11.70
2018-10-19T23:20:37.027Z,11.70
2018-10-19T23:23:05.153Z,11.60
2018-10-19T23:25:33.211Z,11.60
2018-10-19T23:28:01.348Z,11.50
2018-10-19T23:30:29.445Z,11.50
2018-10-19T23:32:57.516Z,11.40
2018-10-19T23:35:25.644Z,11.40
2018-10-19T23:37:53.769Z,11.30
2018-10-19T23:40:21.845Z,11.20
2018-10-19T23:42:49.983Z,11.20
2018-10-19T23:45:18.098Z,11.10
2018-10-19T23:47:46.171Z,11.10
2018-10-19T23:50:14.310Z,11.00
2018-10-19T23:52:42.427Z,11.00
2018-10-19T23:55:10.559Z,11.00
2018-10-19T23:57:38.606Z,10.90
